Terminal Aerodrome Forecast
Issued by NWS Denver/Boulder, CO

Home | Current Version | Previous Version | Text Only | Print | Product List | Glossary On
Versions: 1 2 3 4 5 6 7 8 9 10 11 12 13 14 15 16 17 18 19 20 21 22 23 24 25 26 27 28 29 30 31 32 33 34 35 36 37 38 39 40 41 42 43 44 45 46 47 48 49 50
000
FTUS45 KBOU 291730 AAD
TAFDEN
TAF AMD
KDEN 291730Z 2918/3024 36013KT P6SM SCT010 BKN020 OVC060
      TEMPO 2918/2919 BKN010
     FM291900 36012G18KT P6SM SCT010 BKN030 OVC060
     FM292200 03014KT P6SM SCT060 BKN090
     FM300100 06010KT P6SM FEW060 SCT120
     FM300300 17005KT P6SM FEW120 SCT200
     FM301200 21005KT P6SM FEW120 BKN220
     FM301700 18005KT P6SM FEW060 BKN120=

USA.gov is the U.S. government's official web portal to all federal, state and local government web resources and services.